sensor_id;sensor_type;location;lat;lon;timestamp;temperature;humidity
24152;DHT22;12311;50.866;4.332;2022-11-15T00:01:36;12.30;99.90
24152;DHT22;12311;50.866;4.332;2022-11-15T00:04:05;12.30;99.90
24152;DHT22;12311;50.866;4.332;2022-11-15T00:06:31;12.40;99.90
24152;DHT22;12311;50.866;4.332;2022-11-15T00:08:58;12.40;99.90
24152;DHT22;12311;50.866;4.332;2022-11-15T00:11:24;12.30;99.90
24152;DHT22;12311;50.866;4.332;2022-11-15T00:13:50;12.30;99.90
24152;DHT22;12311;50.866;4.332;2022-11-15T00:16:16;12.40;99.90
24152;DHT22;12311;50.866;4.332;2022-11-15T00:18:42;12.40;99.90
24152;DHT22;12311;50.866;4.332;2022-11-15T00:21:11;12.30;99.90
24152;DHT22;12311;50.866;4.332;2022-11-15T00:23:37;12.40;99.90
24152;DHT22;12311;50.866;4.332;2022-11-15T00:26:03;12.40;99.90
24152;DHT22;12311;50.866;4.332;2022-11-15T00:28:29;12.50;99.90
24152;DHT22;12311;50.866;4.332;2022-11-15T00:31:00;12.50;99.90
24152;DHT22;12311;50.866;4.332;2022-11-15T00:33:26;12.50;99.90
24152;DHT22;12311;50.866;4.332;2022-11-15T00:35:52;12.50;99.90
24152;DHT22;12311;50.866;4.332;2022-11-15T00:38:17;12.50;99.90
24152;DHT22;12311;50.866;4.332;2022-11-15T00:40:43;12.50;99.90
24152;DHT22;12311;50.866;4.332;2022-11-15T00:43:09;12.50;99.90
24152;DHT22;12311;50.866;4.332;2022-11-15T00:45:34;12.50;99.90
24152;DHT22;12311;50.866;4.332;2022-11-15T00:48:00;12.50;99.90
24152;DHT22;12311;50.866;4.332;2022-11-15T00:50:26;12.60;99.90
24152;DHT22;12311;50.866;4.332;2022-11-15T00:52:51;12.70;99.90
24152;DHT22;12311;50.866;4.332;2022-11-15T00:55:18;12.70;99.90
24152;DHT22;12311;50.866;4.332;2022-11-15T00:57:44;12.60;99.90
24152;DHT22;12311;50.866;4.332;2022-11-15T01:00:11;12.60;99.90
24152;DHT22;12311;50.866;4.332;2022-11-15T01:02:37;12.70;99.90
24152;DHT22;12311;50.866;4.332;2022-11-15T01:05:02;12.70;99.90
24152;DHT22;12311;50.866;4.332;2022-11-15T01:07:28;12.70;99.90
24152;DHT22;12311;50.866;4.332;2022-11-15T01:09:54;12.60;99.90
24152;DHT22;12311;50.866;4.332;2022-11-15T01:12:19;12.70;99.90
24152;DHT22;12311;50.866;4.332;2022-11-15T01:14:45;12.70;99.90
24152;DHT22;12311;50.866;4.332;2022-11-15T01:17:10;12.70;99.90
24152;DHT22;12311;50.866;4.332;2022-11-15T01:19:36;12.70;99.90
24152;DHT22;12311;50.866;4.332;2022-11-15T01:22:02;12.70;99.90
24152;DHT22;12311;50.866;4.332;2022-11-15T01:24:27;12.60;99.90
24152;DHT22;12311;50.866;4.332;2022-11-15T01:26:53;12.60;99.90
24152;DHT22;12311;50.866;4.332;2022-11-15T01:29:18;12.60;99.90
24152;DHT22;12311;50.866;4.332;2022-11-15T01:31:44;12.70;99.90
24152;DHT22;12311;50.866;4.332;2022-11-15T01:34:10;12.70;99.90
24152;DHT22;12311;50.866;4.332;2022-11-15T01:36:36;12.70;99.90
24152;DHT22;12311;50.866;4.332;2022-11-15T01:39:01;12.70;99.90
24152;DHT22;12311;50.866;4.332;2022-11-15T01:41:31;12.70;99.90
24152;DHT22;12311;50.866;4.332;2022-11-15T01:44:31;12.70;99.90
24152;DHT22;12311;50.866;4.332;2022-11-15T01:46:46;12.60;99.90
24152;DHT22;12311;50.866;4.332;2022-11-15T01:49:19;12.50;99.90
24152;DHT22;12311;50.866;4.332;2022-11-15T01:51:45;12.50;99.90
24152;DHT22;12311;50.866;4.332;2022-11-15T01:54:14;12.40;99.90
24152;DHT22;12311;50.866;4.332;2022-11-15T01:56:47;12.40;99.90
24152;DHT22;12311;50.866;4.332;2022-11-15T01:59:15;12.40;99.90
24152;DHT22;12311;50.866;4.332;2022-11-15T02:01:41;12.40;99.90
24152;DHT22;12311;50.866;4.332;2022-11-15T02:04:20;12.40;99.90
24152;DHT22;12311;50.866;4.332;2022-11-15T02:06:48;12.50;99.90
24152;DHT22;12311;50.866;4.332;2022-11-15T02:09:14;12.50;99.90
24152;DHT22;12311;50.866;4.332;2022-11-15T02:11:40;12.40;99.90
24152;DHT22;12311;50.866;4.332;2022-11-15T02:14:07;12.50;99.90
24152;DHT22;12311;50.866;4.332;2022-11-15T02:28:06;12.40;99.90
24152;DHT22;12311;50.866;4.332;2022-11-15T02:30:41;12.40;99.90
24152;DHT22;12311;50.866;4.332;2022-11-15T02:33:17;12.30;99.90
24152;DHT22;12311;50.866;4.332;2022-11-15T02:36:02;12.30;99.90
24152;DHT22;12311;50.866;4.332;2022-11-15T02:38:40;12.30;99.90
24152;DHT22;12311;50.866;4.332;2022-11-15T02:41:15;12.20;99.90
24152;DHT22;12311;50.866;4.332;2022-11-15T02:44:00;12.20;99.90
24152;DHT22;12311;50.866;4.332;2022-11-15T02:46:37;12.30;99.90
24152;DHT22;12311;50.866;4.332;2022-11-15T02:49:25;12.30;99.90
24152;DHT22;12311;50.866;4.332;2022-11-15T02:51:52;12.30;99.90
24152;DHT22;12311;50.866;4.332;2022-11-15T02:54:24;12.30;99.90
24152;DHT22;12311;50.866;4.332;2022-11-15T02:56:53;12.40;99.90
24152;DHT22;12311;50.866;4.332;2022-11-15T02:59:57;12.40;99.90
24152;DHT22;12311;50.866;4.332;2022-11-15T03:09:04;12.30;99.90
24152;DHT22;12311;50.866;4.332;2022-11-15T03:11:33;12.40;99.90
24152;DHT22;12311;50.866;4.332;2022-11-15T03:22:06;12.40;99.90
24152;DHT22;12311;50.866;4.332;2022-11-15T03:24:36;12.30;99.90
24152;DHT22;12311;50.866;4.332;2022-11-15T03:27:05;12.30;99.90
24152;DHT22;12311;50.866;4.332;2022-11-15T03:29:35;12.20;99.90
24152;DHT22;12311;50.866;4.332;2022-11-15T03:32:16;12.20;99.90
24152;DHT22;12311;50.866;4.332;2022-11-15T03:37:24;12.30;99.90
24152;DHT22;12311;50.866;4.332;2022-11-15T03:39:51;12.30;99.90
24152;DHT22;12311;50.866;4.332;2022-11-15T03:42:34;12.20;99.90
24152;DHT22;12311;50.866;4.332;2022-11-15T03:48:16;12.20;99.90
24152;DHT22;12311;50.866;4.332;2022-11-15T03:50:44;12.20;99.90
24152;DHT22;12311;50.866;4.332;2022-11-15T03:53:10;12.20;99.90
24152;DHT22;12311;50.866;4.332;2022-11-15T03:55:37;12.10;99.90
24152;DHT22;12311;50.866;4.332;2022-11-15T03:58:03;12.10;99.90
24152;DHT22;12311;50.866;4.332;2022-11-15T04:00:29;12.10;99.90
24152;DHT22;12311;50.866;4.332;2022-11-15T04:02:55;12.10;99.90
24152;DHT22;12311;50.866;4.332;2022-11-15T04:05:20;12.10;99.90
24152;DHT22;12311;50.866;4.332;2022-11-15T04:07:46;12.20;99.90
24152;DHT22;12311;50.866;4.332;2022-11-15T04:10:12;12.10;99.90
24152;DHT22;12311;50.866;4.332;2022-11-15T04:12:40;12.00;99.90
24152;DHT22;12311;50.866;4.332;2022-11-15T04:15:13;12.00;99.90
24152;DHT22;12311;50.866;4.332;2022-11-15T04:17:54;12.00;99.90
24152;DHT22;12311;50.866;4.332;2022-11-15T04:20:22;11.90;99.90
24152;DHT22;12311;50.866;4.332;2022-11-15T04:23:20;12.00;99.90
24152;DHT22;12311;50.866;4.332;2022-11-15T04:26:09;12.10;99.90
24152;DHT22;12311;50.866;4.332;2022-11-15T04:28:35;12.00;99.90
24152;DHT22;12311;50.866;4.332;2022-11-15T04:31:21;12.00;99.90
24152;DHT22;12311;50.866;4.332;2022-11-15T04:33:47;12.00;99.90
24152;DHT22;12311;50.866;4.332;2022-11-15T04:36:12;12.00;99.90
24152;DHT22;12311;50.866;4.332;2022-11-15T04:38:56;12.00;99.90
24152;DHT22;12311;50.866;4.332;2022-11-15T04:41:22;11.80;99.90
24152;DHT22;12311;50.866;4.332;2022-11-15T04:43:48;11.80;99.90
24152;DHT22;12311;50.866;4.332;2022-11-15T04:46:13;11.70;99.90
24152;DHT22;12311;50.866;4.332;2022-11-15T04:48:39;11.70;99.90
24152;DHT22;12311;50.866;4.332;2022-11-15T04:51:04;11.80;99.90
24152;DHT22;12311;50.866;4.332;2022-11-15T04:53:30;11.70;99.90
24152;DHT22;12311;50.866;4.332;2022-11-15T04:55:56;11.70;99.90
24152;DHT22;12311;50.866;4.332;2022-11-15T04:58:21;11.70;99.90
24152;DHT22;12311;50.866;4.332;2022-11-15T05:00:47;11.60;99.90
24152;DHT22;12311;50.866;4.332;2022-11-15T05:03:13;11.50;99.90
24152;DHT22;12311;50.866;4.332;2022-11-15T05:05:57;11.60;99.90
24152;DHT22;12311;50.866;4.332;2022-11-15T05:08:24;11.60;99.90
24152;DHT22;12311;50.866;4.332;2022-11-15T05:10:50;11.50;99.90
24152;DHT22;12311;50.866;4.332;2022-11-15T05:13:15;11.40;99.90
24152;DHT22;12311;50.866;4.332;2022-11-15T05:15:41;11.40;99.90
24152;DHT22;12311;50.866;4.332;2022-11-15T05:18:07;11.40;99.90
24152;DHT22;12311;50.866;4.332;2022-11-15T05:20:32;11.40;99.90
24152;DHT22;12311;50.866;4.332;2022-11-15T05:22:58;11.40;99.90
24152;DHT22;12311;50.866;4.332;2022-11-15T05:25:24;11.40;99.90
24152;DHT22;12311;50.866;4.332;2022-11-15T05:27:50;11.30;99.90
24152;DHT22;12311;50.866;4.332;2022-11-15T05:30:16;11.20;99.90
24152;DHT22;12311;50.866;4.332;2022-11-15T05:32:42;11.20;99.90
24152;DHT22;12311;50.866;4.332;2022-11-15T05:35:13;11.20;99.90
24152;DHT22;12311;50.866;4.332;2022-11-15T05:37:40;11.20;99.90
24152;DHT22;12311;50.866;4.332;2022-11-15T05:40:06;11.20;99.90
24152;DHT22;12311;50.866;4.332;2022-11-15T05:42:32;11.10;99.90
24152;DHT22;12311;50.866;4.332;2022-11-15T05:44:59;11.00;99.90
24152;DHT22;12311;50.866;4.332;2022-11-15T05:47:27;11.00;99.90
24152;DHT22;12311;50.866;4.332;2022-11-15T05:49:55;10.90;99.90
24152;DHT22;12311;50.866;4.332;2022-11-15T05:52:25;10.90;99.90
24152;DHT22;12311;50.866;4.332;2022-11-15T05:54:53;11.00;99.90
24152;DHT22;12311;50.866;4.332;2022-11-15T05:57:20;10.90;99.90
24152;DHT22;12311;50.866;4.332;2022-11-15T05:59:45;10.90;99.90
24152;DHT22;12311;50.866;4.332;2022-11-15T06:02:11;11.00;99.90
24152;DHT22;12311;50.866;4.332;2022-11-15T06:04:36;11.00;99.90
24152;DHT22;12311;50.866;4.332;2022-11-15T06:07:02;11.00;99.90
24152;DHT22;12311;50.866;4.332;2022-11-15T06:09:28;11.00;99.90
24152;DHT22;12311;50.866;4.332;2022-11-15T06:11:53;11.00;99.90
24152;DHT22;12311;50.866;4.332;2022-11-15T06:14:19;10.80;99.90
24152;DHT22;12311;50.866;4.332;2022-11-15T06:16:45;10.80;99.90
24152;DHT22;12311;50.866;4.332;2022-11-15T06:19:10;10.80;99.90
24152;DHT22;12311;50.866;4.332;2022-11-15T06:21:36;10.80;99.90
24152;DHT22;12311;50.866;4.332;2022-11-15T06:24:02;10.70;99.90
24152;DHT22;12311;50.866;4.332;2022-11-15T06:26:28;10.60;99.90
24152;DHT22;12311;50.866;4.332;2022-11-15T06:28:53;10.60;99.90
24152;DHT22;12311;50.866;4.332;2022-11-15T06:31:19;10.60;99.90
24152;DHT22;12311;50.866;4.332;2022-11-15T06:33:44;10.60;99.90
24152;DHT22;12311;50.866;4.332;2022-11-15T06:36:12;10.60;99.90
24152;DHT22;12311;50.866;4.332;2022-11-15T06:38:39;10.50;99.90
24152;DHT22;12311;50.866;4.332;2022-11-15T06:41:07;10.50;99.90
24152;DHT22;12311;50.866;4.332;2022-11-15T06:43:34;10.50;99.90
24152;DHT22;12311;50.866;4.332;2022-11-15T06:46:01;10.40;99.90
24152;DHT22;12311;50.866;4.332;2022-11-15T06:48:28;10.40;99.90
24152;DHT22;12311;50.866;4.332;2022-11-15T06:50:56;10.40;99.90
24152;DHT22;12311;50.866;4.332;2022-11-15T06:53:22;10.40;99.90
24152;DHT22;12311;50.866;4.332;2022-11-15T06:55:49;10.30;99.90
24152;DHT22;12311;50.866;4.332;2022-11-15T06:58:15;10.40;99.90
24152;DHT22;12311;50.866;4.332;2022-11-15T07:00:41;10.30;99.90
24152;DHT22;12311;50.866;4.332;2022-11-15T07:03:07;10.30;99.90
24152;DHT22;12311;50.866;4.332;2022-11-15T07:05:32;10.30;99.90
24152;DHT22;12311;50.866;4.332;2022-11-15T07:07:59;10.30;99.90
24152;DHT22;12311;50.866;4.332;2022-11-15T07:10:25;10.30;99.90
24152;DHT22;12311;50.866;4.332;2022-11-15T07:12:51;10.40;99.90
24152;DHT22;12311;50.866;4.332;2022-11-15T07:15:18;10.30;99.90
24152;DHT22;12311;50.866;4.332;2022-11-15T07:17:44;10.30;99.90
24152;DHT22;12311;50.866;4.332;2022-11-15T07:20:11;10.30;99.90
24152;DHT22;12311;50.866;4.332;2022-11-15T07:22:36;10.30;99.90
24152;DHT22;12311;50.866;4.332;2022-11-15T07:25:02;10.30;99.90
24152;DHT22;12311;50.866;4.332;2022-11-15T07:27:28;10.30;99.90
24152;DHT22;12311;50.866;4.332;2022-11-15T07:29:54;10.40;99.90
24152;DHT22;12311;50.866;4.332;2022-11-15T07:32:19;10.40;99.90
24152;DHT22;12311;50.866;4.332;2022-11-15T07:34:45;10.40;99.90
24152;DHT22;12311;50.866;4.332;2022-11-15T07:37:11;10.30;99.90
24152;DHT22;12311;50.866;4.332;2022-11-15T07:39:37;10.40;99.90
24152;DHT22;12311;50.866;4.332;2022-11-15T07:42:03;10.40;99.90
24152;DHT22;12311;50.866;4.332;2022-11-15T07:44:47;10.40;99.90
24152;DHT22;12311;50.866;4.332;2022-11-15T07:47:13;10.30;99.90
24152;DHT22;12311;50.866;4.332;2022-11-15T07:49:39;10.30;99.90
24152;DHT22;12311;50.866;4.332;2022-11-15T07:52:04;10.30;99.90
24152;DHT22;12311;50.866;4.332;2022-11-15T07:54:30;10.30;99.90
24152;DHT22;12311;50.866;4.332;2022-11-15T07:56:56;10.30;99.90
24152;DHT22;12311;50.866;4.332;2022-11-15T07:59:21;10.30;99.90
24152;DHT22;12311;50.866;4.332;2022-11-15T08:01:47;10.30;99.90
24152;DHT22;12311;50.866;4.332;2022-11-15T08:04:13;10.40;99.90
24152;DHT22;12311;50.866;4.332;2022-11-15T08:06:38;10.50;99.90
24152;DHT22;12311;50.866;4.332;2022-11-15T08:09:04;10.50;99.90
24152;DHT22;12311;50.866;4.332;2022-11-15T08:11:29;10.50;99.90
24152;DHT22;12311;50.866;4.332;2022-11-15T08:13:55;10.60;99.90
24152;DHT22;12311;50.866;4.332;2022-11-15T08:16:21;10.60;99.90
24152;DHT22;12311;50.866;4.332;2022-11-15T08:18:46;10.60;99.90
24152;DHT22;12311;50.866;4.332;2022-11-15T08:21:16;10.70;99.90
24152;DHT22;12311;50.866;4.332;2022-11-15T08:23:43;10.70;99.90
24152;DHT22;12311;50.866;4.332;2022-11-15T08:26:09;10.70;99.90
24152;DHT22;12311;50.866;4.332;2022-11-15T08:28:34;10.70;99.90
24152;DHT22;12311;50.866;4.332;2022-11-15T08:31:00;10.80;99.90
24152;DHT22;12311;50.866;4.332;2022-11-15T08:33:27;10.80;99.90
24152;DHT22;12311;50.866;4.332;2022-11-15T08:35:59;10.70;99.90
24152;DHT22;12311;50.866;4.332;2022-11-15T08:38:25;10.70;99.90
24152;DHT22;12311;50.866;4.332;2022-11-15T08:40:52;10.70;99.90
24152;DHT22;12311;50.866;4.332;2022-11-15T08:43:19;10.70;99.90
24152;DHT22;12311;50.866;4.332;2022-11-15T08:45:45;10.80;99.90
24152;DHT22;12311;50.866;4.332;2022-11-15T08:48:11;10.80;99.90
24152;DHT22;12311;50.866;4.332;2022-11-15T08:50:36;10.90;99.90
24152;DHT22;12311;50.866;4.332;2022-11-15T08:53:08;10.80;99.90
24152;DHT22;12311;50.866;4.332;2022-11-15T08:55:39;10.90;99.90
24152;DHT22;12311;50.866;4.332;2022-11-15T08:58:04;11.00;99.90
24152;DHT22;12311;50.866;4.332;2022-11-15T09:00:30;11.00;99.90
24152;DHT22;12311;50.866;4.332;2022-11-15T09:02:56;11.00;99.90
24152;DHT22;12311;50.866;4.332;2022-11-15T09:05:22;11.00;99.90
24152;DHT22;12311;50.866;4.332;2022-11-15T09:07:48;11.10;99.90
24152;DHT22;12311;50.866;4.332;2022-11-15T09:10:17;11.20;99.90
24152;DHT22;12311;50.866;4.332;2022-11-15T09:12:43;11.20;99.90
24152;DHT22;12311;50.866;4.332;2022-11-15T09:15:09;11.20;99.90
24152;DHT22;12311;50.866;4.332;2022-11-15T09:17:34;11.20;99.90
24152;DHT22;12311;50.866;4.332;2022-11-15T09:20:00;11.20;99.90
24152;DHT22;12311;50.866;4.332;2022-11-15T09:22:26;11.20;99.90
24152;DHT22;12311;50.866;4.332;2022-11-15T09:24:51;11.30;99.90
24152;DHT22;12311;50.866;4.332;2022-11-15T09:27:17;11.60;99.90
24152;DHT22;12311;50.866;4.332;2022-11-15T09:29:43;11.80;99.90
24152;DHT22;12311;50.866;4.332;2022-11-15T09:32:09;11.80;99.90
24152;DHT22;12311;50.866;4.332;2022-11-15T09:34:34;11.80;99.90
24152;DHT22;12311;50.866;4.332;2022-11-15T09:37:00;12.00;99.90
24152;DHT22;12311;50.866;4.332;2022-11-15T09:39:26;12.10;99.90
24152;DHT22;12311;50.866;4.332;2022-11-15T09:49:39;12.70;99.90
24152;DHT22;12311;50.866;4.332;2022-11-15T09:52:07;12.80;99.90
24152;DHT22;12311;50.866;4.332;2022-11-15T09:54:36;12.80;99.90
24152;DHT22;12311;50.866;4.332;2022-11-15T10:05:19;13.10;99.90
24152;DHT22;12311;50.866;4.332;2022-11-15T10:13:28;12.70;99.90
24152;DHT22;12311;50.866;4.332;2022-11-15T10:19:01;12.90;99.90
24152;DHT22;12311;50.866;4.332;2022-11-15T10:24:25;13.20;99.90
24152;DHT22;12311;50.866;4.332;2022-11-15T10:26:54;13.30;99.90
24152;DHT22;12311;50.866;4.332;2022-11-15T10:29:21;13.30;99.90
24152;DHT22;12311;50.866;4.332;2022-11-15T10:31:47;13.40;99.90
24152;DHT22;12311;50.866;4.332;2022-11-15T10:36:57;13.50;99.90
24152;DHT22;12311;50.866;4.332;2022-11-15T10:39:23;13.40;99.90
24152;DHT22;12311;50.866;4.332;2022-11-15T10:41:50;13.30;99.90
24152;DHT22;12311;50.866;4.332;2022-11-15T10:44:45;13.20;99.90
24152;DHT22;12311;50.866;4.332;2022-11-15T10:47:28;13.20;99.90
24152;DHT22;12311;50.866;4.332;2022-11-15T10:49:56;13.30;99.90
24152;DHT22;12311;50.866;4.332;2022-11-15T10:52:22;13.30;99.90
24152;DHT22;12311;50.866;4.332;2022-11-15T10:57:28;13.40;99.90
24152;DHT22;12311;50.866;4.332;2022-11-15T11:00:00;13.40;99.90
24152;DHT22;12311;50.866;4.332;2022-11-15T11:05:02;13.40;99.90
24152;DHT22;12311;50.866;4.332;2022-11-15T11:07:31;13.40;99.90
24152;DHT22;12311;50.866;4.332;2022-11-15T11:12:30;13.30;99.90
24152;DHT22;12311;50.866;4.332;2022-11-15T11:14:58;13.20;99.90
24152;DHT22;12311;50.866;4.332;2022-11-15T11:20:36;13.30;99.90
24152;DHT22;12311;50.866;4.332;2022-11-15T11:36:50;13.70;99.90
24152;DHT22;12311;50.866;4.332;2022-11-15T11:39:50;13.70;99.90
24152;DHT22;12311;50.866;4.332;2022-11-15T11:42:13;13.80;99.90
24152;DHT22;12311;50.866;4.332;2022-11-15T11:48:11;13.60;99.90
24152;DHT22;12311;50.866;4.332;2022-11-15T11:50:38;13.60;99.90
24152;DHT22;12311;50.866;4.332;2022-11-15T11:53:27;13.70;99.90
24152;DHT22;12311;50.866;4.332;2022-11-15T11:55:57;13.80;99.90
24152;DHT22;12311;50.866;4.332;2022-11-15T11:58:41;13.70;99.90
24152;DHT22;12311;50.866;4.332;2022-11-15T12:09:02;13.90;99.90
24152;DHT22;12311;50.866;4.332;2022-11-15T12:11:50;13.90;99.90
24152;DHT22;12311;50.866;4.332;2022-11-15T12:14:41;13.90;99.90
24152;DHT22;12311;50.866;4.332;2022-11-15T12:17:11;14.00;99.90
24152;DHT22;12311;50.866;4.332;2022-11-15T12:19:38;14.10;99.90
24152;DHT22;12311;50.866;4.332;2022-11-15T12:22:20;14.20;99.90
24152;DHT22;12311;50.866;4.332;2022-11-15T12:25:02;14.20;99.90
24152;DHT22;12311;50.866;4.332;2022-11-15T12:27:53;14.10;99.90
24152;DHT22;12311;50.866;4.332;2022-11-15T12:30:21;14.00;99.90
24152;DHT22;12311;50.866;4.332;2022-11-15T12:32:52;14.10;99.90
24152;DHT22;12311;50.866;4.332;2022-11-15T12:35:26;14.10;99.90
24152;DHT22;12311;50.866;4.332;2022-11-15T12:37:54;14.10;99.90
24152;DHT22;12311;50.866;4.332;2022-11-15T12:42:59;14.20;99.90
24152;DHT22;12311;50.866;4.332;2022-11-15T12:45:36;14.30;99.90
24152;DHT22;12311;50.866;4.332;2022-11-15T12:50:55;14.50;99.90
24152;DHT22;12311;50.866;4.332;2022-11-15T12:58:54;14.20;99.90
24152;DHT22;12311;50.866;4.332;2022-11-15T13:06:50;14.20;99.90
24152;DHT22;12311;50.866;4.332;2022-11-15T13:12:07;14.30;99.90
24152;DHT22;12311;50.866;4.332;2022-11-15T13:17:12;14.50;99.90
24152;DHT22;12311;50.866;4.332;2022-11-15T13:19:42;14.50;99.90
24152;DHT22;12311;50.866;4.332;2022-11-15T13:22:11;14.40;99.90
24152;DHT22;12311;50.866;4.332;2022-11-15T13:24:55;14.40;99.90
24152;DHT22;12311;50.866;4.332;2022-11-15T13:27:22;14.50;99.90
24152;DHT22;12311;50.866;4.332;2022-11-15T13:29:48;14.40;99.90
24152;DHT22;12311;50.866;4.332;2022-11-15T13:32:15;14.30;99.90
24152;DHT22;12311;50.866;4.332;2022-11-15T13:34:46;14.30;99.90
24152;DHT22;12311;50.866;4.332;2022-11-15T13:39:48;14.30;99.90
24152;DHT22;12311;50.866;4.332;2022-11-15T13:42:16;14.30;99.90
24152;DHT22;12311;50.866;4.332;2022-11-15T13:44:56;14.20;99.90
24152;DHT22;12311;50.866;4.332;2022-11-15T13:47:25;14.20;99.90
24152;DHT22;12311;50.866;4.332;2022-11-15T13:49:52;14.20;99.90
24152;DHT22;12311;50.866;4.332;2022-11-15T13:52:18;14.10;99.90
24152;DHT22;12311;50.866;4.332;2022-11-15T13:54:58;14.20;99.90
24152;DHT22;12311;50.866;4.332;2022-11-15T13:57:32;14.30;99.90
24152;DHT22;12311;50.866;4.332;2022-11-15T14:02:51;14.20;99.90
24152;DHT22;12311;50.866;4.332;2022-11-15T14:05:19;14.10;99.90
24152;DHT22;12311;50.866;4.332;2022-11-15T14:07:57;14.10;99.90
24152;DHT22;12311;50.866;4.332;2022-11-15T14:10:34;14.10;99.90
24152;DHT22;12311;50.866;4.332;2022-11-15T14:13:02;14.20;99.90
24152;DHT22;12311;50.866;4.332;2022-11-15T14:15:35;14.20;99.90
24152;DHT22;12311;50.866;4.332;2022-11-15T14:18:01;14.10;99.90
24152;DHT22;12311;50.866;4.332;2022-11-15T14:20:34;14.10;99.90
24152;DHT22;12311;50.866;4.332;2022-11-15T14:23:02;14.10;99.90
24152;DHT22;12311;50.866;4.332;2022-11-15T14:25:37;14.10;99.90
24152;DHT22;12311;50.866;4.332;2022-11-15T14:30:50;13.90;99.90
24152;DHT22;12311;50.866;4.332;2022-11-15T14:33:34;13.70;99.90
24152;DHT22;12311;50.866;4.332;2022-11-15T14:36:12;13.50;99.90
24152;DHT22;12311;50.866;4.332;2022-11-15T14:38:39;13.40;99.90
24152;DHT22;12311;50.866;4.332;2022-11-15T14:41:04;13.30;99.90
24152;DHT22;12311;50.866;4.332;2022-11-15T14:43:31;13.20;99.90
24152;DHT22;12311;50.866;4.332;2022-11-15T14:45:57;13.20;99.90
24152;DHT22;12311;50.866;4.332;2022-11-15T14:48:22;13.20;99.90
24152;DHT22;12311;50.866;4.332;2022-11-15T14:50:48;13.20;99.90
24152;DHT22;12311;50.866;4.332;2022-11-15T14:53:16;13.10;99.90
24152;DHT22;12311;50.866;4.332;2022-11-15T14:55:42;13.10;99.90
24152;DHT22;12311;50.866;4.332;2022-11-15T14:58:08;13.10;99.90
24152;DHT22;12311;50.866;4.332;2022-11-15T15:00:35;13.00;99.90
24152;DHT22;12311;50.866;4.332;2022-11-15T15:03:02;12.90;99.90
24152;DHT22;12311;50.866;4.332;2022-11-15T15:05:33;13.00;99.90
24152;DHT22;12311;50.866;4.332;2022-11-15T15:08:00;12.90;99.90
24152;DHT22;12311;50.866;4.332;2022-11-15T15:10:30;13.00;99.90
24152;DHT22;12311;50.866;4.332;2022-11-15T15:12:56;12.90;99.90
24152;DHT22;12311;50.866;4.332;2022-11-15T15:15:27;12.80;99.90
24152;DHT22;12311;50.866;4.332;2022-11-15T15:17:55;12.80;99.90
24152;DHT22;12311;50.866;4.332;2022-11-15T15:20:20;12.80;99.90
24152;DHT22;12311;50.866;4.332;2022-11-15T15:22:46;12.80;99.90
24152;DHT22;12311;50.866;4.332;2022-11-15T15:25:31;12.80;99.90
24152;DHT22;12311;50.866;4.332;2022-11-15T15:27:58;12.70;99.90
24152;DHT22;12311;50.866;4.332;2022-11-15T15:30:25;12.70;99.90
24152;DHT22;12311;50.866;4.332;2022-11-15T15:32:51;12.70;99.90
24152;DHT22;12311;50.866;4.332;2022-11-15T15:35:17;12.60;99.90
24152;DHT22;12311;50.866;4.332;2022-11-15T15:37:44;12.60;99.90
24152;DHT22;12311;50.866;4.332;2022-11-15T15:40:21;12.60;99.90
24152;DHT22;12311;50.866;4.332;2022-11-15T15:42:47;12.60;99.90
24152;DHT22;12311;50.866;4.332;2022-11-15T15:45:14;12.60;99.90
24152;DHT22;12311;50.866;4.332;2022-11-15T15:47:40;12.60;99.90
24152;DHT22;12311;50.866;4.332;2022-11-15T15:52:45;12.60;99.90
24152;DHT22;12311;50.866;4.332;2022-11-15T15:55:11;12.60;99.90
24152;DHT22;12311;50.866;4.332;2022-11-15T15:57:36;12.50;99.90
24152;DHT22;12311;50.866;4.332;2022-11-15T16:00:04;12.50;99.90
24152;DHT22;12311;50.866;4.332;2022-11-15T16:02:30;12.50;99.90
24152;DHT22;12311;50.866;4.332;2022-11-15T16:04:56;12.50;99.90
24152;DHT22;12311;50.866;4.332;2022-11-15T16:07:22;12.50;99.90
24152;DHT22;12311;50.866;4.332;2022-11-15T16:09:51;12.50;99.90
24152;DHT22;12311;50.866;4.332;2022-11-15T16:12:26;12.50;99.90
24152;DHT22;12311;50.866;4.332;2022-11-15T16:14:52;12.50;99.90
24152;DHT22;12311;50.866;4.332;2022-11-15T16:17:21;12.60;99.90
24152;DHT22;12311;50.866;4.332;2022-11-15T16:19:48;12.60;99.90
24152;DHT22;12311;50.866;4.332;2022-11-15T16:22:13;12.60;99.90
24152;DHT22;12311;50.866;4.332;2022-11-15T16:24:39;12.60;99.90
24152;DHT22;12311;50.866;4.332;2022-11-15T16:27:04;12.60;99.90
24152;DHT22;12311;50.866;4.332;2022-11-15T16:29:30;12.60;99.90
24152;DHT22;12311;50.866;4.332;2022-11-15T16:31:56;12.60;99.90
24152;DHT22;12311;50.866;4.332;2022-11-15T16:34:22;12.60;99.90
24152;DHT22;12311;50.866;4.332;2022-11-15T16:36:55;12.60;99.90
24152;DHT22;12311;50.866;4.332;2022-11-15T16:39:20;12.60;99.90
24152;DHT22;12311;50.866;4.332;2022-11-15T16:41:48;12.60;99.90
24152;DHT22;12311;50.866;4.332;2022-11-15T16:44:14;12.60;99.90
24152;DHT22;12311;50.866;4.332;2022-11-15T16:46:43;12.50;99.90
24152;DHT22;12311;50.866;4.332;2022-11-15T16:49:14;12.50;99.90
24152;DHT22;12311;50.866;4.332;2022-11-15T16:51:41;12.50;99.90
24152;DHT22;12311;50.866;4.332;2022-11-15T16:54:09;12.50;99.90
24152;DHT22;12311;50.866;4.332;2022-11-15T16:56:34;12.50;99.90
24152;DHT22;12311;50.866;4.332;2022-11-15T16:59:00;12.50;99.90
24152;DHT22;12311;50.866;4.332;2022-11-15T17:01:29;12.50;99.90
24152;DHT22;12311;50.866;4.332;2022-11-15T17:03:55;12.50;99.90
24152;DHT22;12311;50.866;4.332;2022-11-15T17:06:22;12.60;99.90
24152;DHT22;12311;50.866;4.332;2022-11-15T17:08:48;12.50;99.90
24152;DHT22;12311;50.866;4.332;2022-11-15T17:11:16;12.50;99.90
24152;DHT22;12311;50.866;4.332;2022-11-15T17:13:42;12.50;99.90
24152;DHT22;12311;50.866;4.332;2022-11-15T17:16:11;12.60;99.90
24152;DHT22;12311;50.866;4.332;2022-11-15T17:18:38;12.60;99.90
24152;DHT22;12311;50.866;4.332;2022-11-15T17:21:11;12.60;99.90
24152;DHT22;12311;50.866;4.332;2022-11-15T17:23:38;12.60;99.90
24152;DHT22;12311;50.866;4.332;2022-11-15T17:26:04;12.60;99.90
24152;DHT22;12311;50.866;4.332;2022-11-15T17:28:34;12.60;99.90
24152;DHT22;12311;50.866;4.332;2022-11-15T17:31:00;12.60;99.90
24152;DHT22;12311;50.866;4.332;2022-11-15T17:33:26;12.50;99.90
24152;DHT22;12311;50.866;4.332;2022-11-15T17:35:56;12.50;99.90
24152;DHT22;12311;50.866;4.332;2022-11-15T17:38:22;12.50;99.90
24152;DHT22;12311;50.866;4.332;2022-11-15T17:40:48;12.50;99.90
24152;DHT22;12311;50.866;4.332;2022-11-15T17:43:14;12.50;99.90
24152;DHT22;12311;50.866;4.332;2022-11-15T17:45:41;12.50;99.90
24152;DHT22;12311;50.866;4.332;2022-11-15T17:48:06;12.50;99.90
24152;DHT22;12311;50.866;4.332;2022-11-15T17:50:32;12.50;99.90